createdAt,value
2023-02-19T00:00:39.782Z,1.40
2023-02-19T00:02:42.760Z,1.48
2023-02-19T00:04:45.734Z,1.35
2023-02-19T00:06:49.588Z,1.25
2023-02-19T00:08:51.811Z,1.30
2023-02-19T00:10:54.354Z,1.30
2023-02-19T00:12:56.782Z,1.38
2023-02-19T00:14:59.033Z,1.30
2023-02-19T00:17:01.373Z,1.55
2023-02-19T00:19:06.456Z,1.77
2023-02-19T00:21:09.609Z,1.95
2023-02-19T00:23:12.332Z,1.90
2023-02-19T00:25:14.811Z,1.70
2023-02-19T00:27:17.554Z,2.00
2023-02-19T00:29:21.813Z,2.20
2023-02-19T00:31:33.350Z,2.10
2023-02-19T00:33:36.240Z,2.33
2023-02-19T00:35:39.127Z,2.45
2023-02-19T00:37:42.586Z,2.08
2023-02-19T00:39:45.150Z,2.30
2023-02-19T00:41:48.355Z,2.20
2023-02-19T00:44:02.090Z,2.30
2023-02-19T00:46:04.687Z,2.05
2023-02-19T00:48:07.131Z,2.25
2023-02-19T00:50:09.862Z,2.05
2023-02-19T00:52:12.696Z,2.38
2023-02-19T00:54:15.719Z,1.73
2023-02-19T00:56:18.624Z,1.75
2023-02-19T00:58:21.058Z,1.77
2023-02-19T01:00:23.870Z,1.35
2023-02-19T01:02:27.300Z,1.48
2023-02-19T01:04:29.783Z,1.30
2023-02-19T01:06:33.309Z,1.63
2023-02-19T01:08:36.259Z,1.55
2023-02-19T01:10:38.407Z,1.27
2023-02-19T01:12:40.796Z,1.77
2023-02-19T01:14:43.457Z,1.10
2023-02-19T01:16:45.696Z,1.17
2023-02-19T01:18:49.205Z,1.25
2023-02-19T01:20:53.716Z,1.10
2023-02-19T01:22:56.017Z,1.60
2023-02-19T01:24:58.390Z,1.38
2023-02-19T01:27:00.804Z,0.93
2023-02-19T01:29:04.225Z,0.93
2023-02-19T01:31:09.898Z,0.90
2023-02-19T01:33:12.740Z,1.00
2023-02-19T01:35:15.564Z,1.00
2023-02-19T01:37:18.266Z,0.93
2023-02-19T01:39:20.735Z,1.33
2023-02-19T01:41:25.771Z,1.13
2023-02-19T01:43:29.314Z,1.55
2023-02-19T01:45:38.551Z,1.33
2023-02-19T01:47:40.832Z,1.40
2023-02-19T01:49:51.473Z,1.58
2023-02-19T01:52:02.256Z,1.42
2023-02-19T01:54:07.536Z,1.20
2023-02-19T01:56:10.642Z,1.40
2023-02-19T01:58:16.097Z,1.40
2023-02-19T02:00:18.974Z,1.65
2023-02-19T02:02:24.441Z,1.48
2023-02-19T02:04:30.347Z,1.40
2023-02-19T02:06:43.137Z,1.45
2023-02-19T02:09:04.846Z,1.17
2023-02-19T02:11:07.324Z,1.10
2023-02-19T02:13:09.651Z,0.90
2023-02-19T02:15:12.857Z,1.80
2023-02-19T02:17:27.038Z,1.20
2023-02-19T02:20:10.797Z,1.15
2023-02-19T02:22:21.119Z,1.52
2023-02-19T02:25:13.780Z,1.65
2023-02-19T02:27:40.489Z,2.08
2023-02-19T02:30:07.355Z,2.25
2023-02-19T02:32:16.223Z,2.28
2023-02-19T02:34:27.938Z,2.65
2023-02-19T02:36:38.218Z,3.03
2023-02-19T02:38:44.983Z,2.55
2023-02-19T02:40:48.966Z,2.90
2023-02-19T02:42:52.119Z,2.35
2023-02-19T02:45:17.776Z,2.00
2023-02-19T02:47:38.963Z,1.40
2023-02-19T02:50:01.282Z,1.60
2023-02-19T02:52:24.617Z,2.10
2023-02-19T02:54:51.141Z,1.85
2023-02-19T02:56:58.290Z,1.50
2023-02-19T02:59:08.491Z,1.60
2023-02-19T03:01:39.059Z,1.67
2023-02-19T03:03:44.989Z,1.95
2023-02-19T03:05:53.159Z,1.52
2023-02-19T03:08:05.053Z,2.30
2023-02-19T03:10:12.686Z,1.90
2023-02-19T03:12:36.610Z,2.60
2023-02-19T03:15:05.685Z,2.58
2023-02-19T03:17:39.439Z,2.47
2023-02-19T03:19:46.345Z,2.95
2023-02-19T03:22:02.512Z,2.53
2023-02-19T03:24:27.725Z,2.15
2023-02-19T03:26:33.723Z,3.08
2023-02-19T03:29:10.548Z,2.30
2023-02-19T03:31:20.127Z,3.22
2023-02-19T03:33:27.103Z,2.22
2023-02-19T03:35:34.372Z,2.45
2023-02-19T03:37:42.524Z,2.50
2023-02-19T03:39:45.855Z,2.95
2023-02-19T03:42:16.927Z,2.00
2023-02-19T03:44:35.145Z,2.03
2023-02-19T03:46:49.222Z,2.80
2023-02-19T03:48:54.234Z,2.35
2023-02-19T03:51:25.996Z,2.78
2023-02-19T03:53:40.954Z,4.40
2023-02-19T03:55:52.425Z,2.80
2023-02-19T03:58:20.198Z,2.67
2023-02-19T04:00:55.129Z,3.85
2023-02-19T04:03:01.393Z,5.55
2023-02-19T04:05:15.071Z,7.15
2023-02-19T04:07:18.078Z,7.78
2023-02-19T04:09:23.963Z,7.75
2023-02-19T04:11:34.888Z,7.03
2023-02-19T04:13:58.719Z,7.75
2023-02-19T04:16:09.582Z,7.20
2023-02-19T04:18:16.911Z,7.03
2023-02-19T04:20:21.763Z,7.85
2023-02-19T04:22:25.626Z,8.43
2023-02-19T04:24:41.920Z,7.80
2023-02-19T04:26:45.137Z,7.80
2023-02-19T04:28:47.612Z,8.00
2023-02-19T04:30:50.441Z,7.25
2023-02-19T04:32:52.852Z,8.27
2023-02-19T04:34:55.498Z,7.57
2023-02-19T04:36:58.045Z,6.28
2023-02-19T04:39:00.431Z,5.35
2023-02-19T04:41:02.868Z,6.43
2023-02-19T04:43:05.494Z,6.63
2023-02-19T04:45:08.964Z,5.45
2023-02-19T04:47:11.393Z,6.30
2023-02-19T04:49:13.731Z,6.63
2023-02-19T04:51:16.171Z,7.50
2023-02-19T04:53:18.441Z,6.25
2023-02-19T04:55:20.858Z,5.63
2023-02-19T04:57:23.222Z,4.95
2023-02-19T04:59:25.570Z,6.60
2023-02-19T05:01:28.055Z,4.45
2023-02-19T05:03:30.780Z,3.40
2023-02-19T05:05:33.426Z,3.70
2023-02-19T05:07:35.755Z,4.75
2023-02-19T05:09:38.195Z,5.25
2023-02-19T05:11:40.482Z,5.75
2023-02-19T05:13:42.672Z,4.68
2023-02-19T05:15:55.531Z,4.35
2023-02-19T05:17:57.918Z,4.47
2023-02-19T05:20:01.033Z,3.60
2023-02-19T05:22:03.561Z,5.00
2023-02-19T05:24:06.434Z,6.03
2023-02-19T05:26:21.995Z,6.00
2023-02-19T05:28:34.264Z,4.63
2023-02-19T05:30:36.682Z,4.93
2023-02-19T05:32:39.276Z,5.70
2023-02-19T05:34:41.711Z,6.05
2023-02-19T05:36:44.585Z,4.90
2023-02-19T05:38:48.135Z,4.80
2023-02-19T05:40:51.126Z,3.42
2023-02-19T05:42:53.744Z,4.93
2023-02-19T05:44:56.807Z,5.57
2023-02-19T05:46:58.980Z,5.50
2023-02-19T05:49:01.928Z,4.60
2023-02-19T05:51:07.072Z,7.10
2023-02-19T05:53:10.100Z,8.88
2023-02-19T05:55:13.169Z,8.63
2023-02-19T05:57:15.970Z,8.23
2023-02-19T05:59:21.250Z,8.60
2023-02-19T06:01:26.600Z,8.90
2023-02-19T06:03:29.234Z,8.23
2023-02-19T06:05:31.758Z,7.63
2023-02-19T06:07:34.888Z,6.32
2023-02-19T06:09:37.206Z,8.65
2023-02-19T06:11:40.017Z,9.57
2023-02-19T06:13:42.523Z,8.52
2023-02-19T06:15:44.854Z,7.32
2023-02-19T06:17:48.804Z,8.75
2023-02-19T06:19:51.486Z,9.38
2023-02-19T06:21:53.783Z,7.32
2023-02-19T06:23:56.146Z,5.75
2023-02-19T06:26:20.066Z,6.07
2023-02-19T06:28:23.149Z,6.50
2023-02-19T06:30:26.354Z,6.20
2023-02-19T06:32:28.790Z,6.95
2023-02-19T06:34:31.199Z,6.22
2023-02-19T06:36:34.172Z,6.85
2023-02-19T06:38:36.381Z,5.47
2023-02-19T06:40:39.483Z,5.80
2023-02-19T06:42:41.652Z,7.60
2023-02-19T06:44:43.999Z,6.63
2023-02-19T06:46:46.281Z,7.68
2023-02-19T06:48:48.752Z,6.88
2023-02-19T06:50:51.341Z,7.43
2023-02-19T06:52:53.794Z,6.13
2023-02-19T06:54:55.984Z,5.70
2023-02-19T06:56:59.489Z,5.22
2023-02-19T06:59:04.816Z,4.80
2023-02-19T07:01:07.507Z,3.75
2023-02-19T07:03:09.959Z,3.13
2023-02-19T07:05:12.942Z,4.55
2023-02-19T07:07:15.330Z,4.25
2023-02-19T07:09:17.651Z,3.70
2023-02-19T07:11:20.150Z,3.17
2023-02-19T07:13:24.210Z,3.08
2023-02-19T07:15:26.628Z,2.72
2023-02-19T07:17:29.094Z,2.58
2023-02-19T07:19:31.847Z,3.15
2023-02-19T07:21:38.034Z,3.25
2023-02-19T07:23:40.937Z,3.17
2023-02-19T07:25:43.486Z,2.60
2023-02-19T07:27:46.044Z,2.83
2023-02-19T07:29:48.591Z,3.33
2023-02-19T07:31:51.243Z,2.78
2023-02-19T07:33:53.520Z,2.80
2023-02-19T07:35:55.957Z,2.63
2023-02-19T07:37:58.260Z,6.05
2023-02-19T07:40:00.689Z,7.63
2023-02-19T07:42:02.863Z,10.32
2023-02-19T07:44:07.872Z,6.40
2023-02-19T07:46:13.896Z,5.97
2023-02-19T07:48:17.296Z,5.90
2023-02-19T07:50:19.570Z,4.95
2023-02-19T07:52:22.397Z,3.90
2023-02-19T07:54:25.024Z,4.30
2023-02-19T07:56:29.579Z,4.03
2023-02-19T07:58:33.011Z,4.55
2023-02-19T08:00:35.405Z,5.35
2023-02-19T08:02:56.825Z,3.95
2023-02-19T08:04:59.740Z,4.88
2023-02-19T08:07:02.376Z,3.92
2023-02-19T08:09:06.322Z,4.10
2023-02-19T08:11:29.464Z,3.33
2023-02-19T08:13:32.014Z,3.10
2023-02-19T08:15:34.463Z,4.15
2023-02-19T08:17:37.322Z,5.25
2023-02-19T08:19:40.092Z,4.43
2023-02-19T08:21:42.833Z,4.70
2023-02-19T08:23:46.574Z,4.68
2023-02-19T08:25:51.000Z,4.65
2023-02-19T08:27:53.222Z,4.25
2023-02-19T08:29:56.274Z,5.25
2023-02-19T08:31:58.646Z,6.07
2023-02-19T08:34:01.403Z,5.05
2023-02-19T08:36:08.769Z,4.82
2023-02-19T08:38:12.563Z,5.78
2023-02-19T08:40:15.500Z,6.07
2023-02-19T08:42:18.217Z,5.47
2023-02-19T08:44:21.691Z,5.18
2023-02-19T08:46:24.201Z,5.30
2023-02-19T08:48:26.779Z,5.80
2023-02-19T08:50:29.035Z,6.38
2023-02-19T08:52:32.750Z,7.75
2023-02-19T08:54:37.213Z,6.72
2023-02-19T08:56:40.291Z,6.60
2023-02-19T08:58:44.102Z,5.75
2023-02-19T09:00:46.849Z,4.40
2023-02-19T09:02:50.327Z,4.90
2023-02-19T09:04:52.978Z,3.92
2023-02-19T09:06:55.499Z,3.60
2023-02-19T09:08:58.617Z,4.07
2023-02-19T09:11:02.738Z,2.95
2023-02-19T09:13:05.195Z,3.22
2023-02-19T09:15:08.485Z,2.78
2023-02-19T09:17:11.420Z,2.90
2023-02-19T09:19:14.105Z,2.65
2023-02-19T09:21:16.648Z,3.35
2023-02-19T09:23:19.349Z,3.10
2023-02-19T09:25:21.909Z,3.17
2023-02-19T09:27:24.335Z,3.13
2023-02-19T09:29:28.425Z,3.35
2023-02-19T09:31:31.024Z,3.10
2023-02-19T09:33:34.194Z,2.72
2023-02-19T09:35:40.170Z,3.47
2023-02-19T09:37:42.889Z,3.60
2023-02-19T09:39:45.372Z,3.92
2023-02-19T09:42:14.179Z,3.45
2023-02-19T09:44:28.454Z,3.10
2023-02-19T09:46:48.281Z,1.55
2023-02-19T09:48:53.027Z,1.55
2023-02-19T09:50:57.132Z,1.30
2023-02-19T09:53:05.251Z,1.48
2023-02-19T09:55:18.315Z,1.40
2023-02-19T09:59:28.650Z,1.50
2023-02-19T10:01:37.700Z,1.52
2023-02-19T10:03:44.098Z,2.10
2023-02-19T10:05:46.675Z,1.90
2023-02-19T10:07:53.085Z,1.50
2023-02-19T10:10:03.117Z,1.80
2023-02-19T10:12:17.314Z,2.15
2023-02-19T10:14:28.817Z,1.50
2023-02-19T10:16:31.700Z,1.30
2023-02-19T10:18:41.414Z,1.13
2023-02-19T10:20:44.091Z,1.50
2023-02-19T10:22:47.129Z,2.10
2023-02-19T10:24:56.135Z,1.67
2023-02-19T10:26:58.823Z,1.52
2023-02-19T10:29:02.667Z,1.65
2023-02-19T10:31:16.355Z,1.50
2023-02-19T10:33:20.170Z,1.83
2023-02-19T10:35:22.420Z,1.52
2023-02-19T10:37:25.481Z,1.17
2023-02-19T10:39:43.956Z,1.42
2023-02-19T10:41:46.251Z,1.08
2023-02-19T10:44:01.217Z,1.20
2023-02-19T10:46:18.236Z,0.82
2023-02-19T10:48:28.583Z,0.80
2023-02-19T10:50:47.339Z,1.00
2023-02-19T10:52:54.836Z,1.25
2023-02-19T10:55:14.423Z,1.10
2023-02-19T10:57:19.856Z,1.40
2023-02-19T10:59:27.361Z,1.20
2023-02-19T11:01:30.336Z,1.25
2023-02-19T11:03:32.756Z,1.05
2023-02-19T11:05:38.700Z,1.00
2023-02-19T11:07:55.217Z,1.00
2023-02-19T11:09:59.262Z,1.13
2023-02-19T11:12:05.854Z,1.35
2023-02-19T11:14:20.141Z,1.17
2023-02-19T11:16:24.144Z,1.55
2023-02-19T11:18:32.287Z,2.10
2023-02-19T11:20:34.871Z,2.20
2023-02-19T11:22:47.322Z,2.08
2023-02-19T11:24:57.293Z,2.85
2023-02-19T11:27:04.437Z,2.38
2023-02-19T11:29:26.375Z,2.10
2023-02-19T11:31:36.490Z,2.85
2023-02-19T11:34:04.591Z,2.63
2023-02-19T11:36:16.634Z,2.92
2023-02-19T11:38:21.312Z,2.20
2023-02-19T11:40:38.143Z,2.03
2023-02-19T11:42:59.371Z,2.30
2023-02-19T11:45:35.778Z,1.70
2023-02-19T11:48:09.047Z,2.20
2023-02-19T11:50:26.399Z,1.92
2023-02-19T11:53:00.195Z,2.03
2023-02-19T11:55:05.397Z,1.60
2023-02-19T11:57:43.242Z,2.00
2023-02-19T12:00:01.185Z,1.63
2023-02-19T12:02:39.340Z,1.70
2023-02-19T12:05:19.365Z,1.67
2023-02-19T12:07:51.714Z,1.80
2023-02-19T12:10:06.475Z,2.47
2023-02-19T12:12:31.203Z,1.88
2023-02-19T12:14:58.939Z,1.80
2023-02-19T12:17:28.870Z,1.55
2023-02-19T12:19:55.392Z,1.80
2023-02-19T12:22:25.821Z,1.20
2023-02-19T12:24:40.529Z,1.60
2023-02-19T12:27:01.311Z,1.30
2023-02-19T12:29:24.902Z,1.27
2023-02-19T12:31:39.931Z,1.67
2023-02-19T12:33:57.716Z,1.40
2023-02-19T12:36:22.887Z,1.25
2023-02-19T12:38:37.310Z,1.20
2023-02-19T12:41:13.572Z,1.63
2023-02-19T12:43:24.025Z,1.23
2023-02-19T12:45:58.228Z,1.05
2023-02-19T12:48:17.460Z,1.20
2023-02-19T12:50:26.194Z,1.67
2023-02-19T12:52:37.188Z,2.05
2023-02-19T12:54:44.029Z,1.55
2023-02-19T12:56:53.134Z,1.50
2023-02-19T12:59:05.234Z,2.25
2023-02-19T13:01:10.726Z,1.80
2023-02-19T13:03:41.583Z,2.05
2023-02-19T13:05:53.028Z,1.75
2023-02-19T13:08:04.379Z,1.70
2023-02-19T13:10:30.577Z,1.95
2023-02-19T13:12:41.555Z,1.95
2023-02-19T13:15:00.694Z,5.30
2023-02-19T13:19:33.850Z,5.47
2023-02-19T13:21:56.810Z,5.35
2023-02-19T13:24:03.387Z,6.57
2023-02-19T13:26:44.917Z,13.73
2023-02-19T13:29:23.271Z,4.35
2023-02-19T13:31:58.064Z,3.28
2023-02-19T13:34:21.138Z,3.95
2023-02-19T13:36:28.836Z,37.25
2023-02-19T13:38:32.137Z,14.10
2023-02-19T13:40:39.752Z,3.30
2023-02-19T13:42:42.335Z,8.60
2023-02-19T13:44:48.982Z,2.60
2023-02-19T13:46:51.823Z,2.15
2023-02-19T13:49:25.207Z,2.67
2023-02-19T13:51:28.124Z,3.33
2023-02-19T13:53:45.097Z,1.67
2023-02-19T13:55:52.747Z,2.42
2023-02-19T13:58:15.685Z,1.70
2023-02-19T14:00:56.742Z,2.28
2023-02-19T14:03:31.524Z,1.98
2023-02-19T14:05:59.894Z,2.63
2023-02-19T14:08:02.643Z,1.67
2023-02-19T14:10:13.073Z,1.67
2023-02-19T14:12:18.484Z,1.75
2023-02-19T14:14:54.864Z,2.65
2023-02-19T14:17:04.010Z,2.35
2023-02-19T14:19:36.881Z,1.85
2023-02-19T14:21:41.062Z,2.03
2023-02-19T14:23:44.501Z,1.60
2023-02-19T14:25:52.982Z,1.92
2023-02-19T14:28:03.949Z,2.38
2023-02-19T14:30:06.758Z,1.60
2023-02-19T14:32:18.590Z,1.73
2023-02-19T14:34:25.405Z,1.98
2023-02-19T14:36:40.783Z,1.85
2023-02-19T14:39:10.867Z,2.50
2023-02-19T14:41:16.377Z,1.92
2023-02-19T14:43:21.693Z,2.13
2023-02-19T14:45:25.253Z,2.42
2023-02-19T14:47:32.550Z,1.55
2023-02-19T14:50:16.626Z,1.63
2023-02-19T14:52:32.405Z,2.60
2023-02-19T14:54:38.133Z,1.95
2023-02-19T14:56:44.283Z,2.20
2023-02-19T14:58:47.052Z,1.80
2023-02-19T15:00:49.693Z,2.40
2023-02-19T15:02:58.920Z,2.13
2023-02-19T15:05:01.545Z,1.85
2023-02-19T15:07:08.940Z,2.55
2023-02-19T15:09:14.195Z,2.58
2023-02-19T15:11:22.017Z,3.00
2023-02-19T15:13:29.968Z,2.38
2023-02-19T15:15:45.701Z,3.30
2023-02-19T15:17:49.239Z,2.72
2023-02-19T15:19:52.411Z,2.58
2023-02-19T15:21:55.933Z,3.00
2023-02-19T15:24:04.386Z,2.88
2023-02-19T15:26:21.350Z,2.97
2023-02-19T15:28:29.999Z,3.00
2023-02-19T15:30:32.621Z,3.15
2023-02-19T15:32:35.140Z,2.72
2023-02-19T15:34:37.390Z,2.60
2023-02-19T15:36:40.342Z,2.70
2023-02-19T15:38:42.744Z,3.40
2023-02-19T15:40:47.405Z,2.80
2023-02-19T15:42:49.859Z,3.97
2023-02-19T15:45:04.656Z,3.60
2023-02-19T15:47:41.987Z,3.08
2023-02-19T15:49:52.904Z,2.65
2023-02-19T15:52:05.232Z,2.70
2023-02-19T15:54:51.164Z,2.10
2023-02-19T15:56:55.656Z,2.70
2023-02-19T15:58:57.954Z,2.28
2023-02-19T16:01:28.083Z,2.42
2023-02-19T16:03:32.704Z,2.35
2023-02-19T16:05:40.387Z,2.40
2023-02-19T16:07:44.055Z,2.58
2023-02-19T16:09:46.444Z,2.38
2023-02-19T16:11:52.634Z,3.10
2023-02-19T16:14:21.351Z,2.40
2023-02-19T16:16:30.258Z,2.60
2023-02-19T16:18:33.795Z,2.50
2023-02-19T16:20:36.804Z,2.38
2023-02-19T16:22:43.464Z,2.30
2023-02-19T16:24:49.771Z,2.35
2023-02-19T16:26:52.656Z,2.50
2023-02-19T16:28:55.875Z,2.60
2023-02-19T16:31:09.821Z,2.90
2023-02-19T16:33:22.012Z,3.55
2023-02-19T16:35:40.483Z,2.97
2023-02-19T16:37:58.168Z,2.85
2023-02-19T16:40:11.607Z,3.40
2023-02-19T16:42:15.503Z,3.80
2023-02-19T16:44:21.105Z,3.58
2023-02-19T16:46:24.243Z,3.50
2023-02-19T16:48:27.442Z,3.03
2023-02-19T16:50:29.931Z,3.25
2023-02-19T16:52:32.531Z,3.25
2023-02-19T16:54:35.277Z,3.38
2023-02-19T16:56:38.273Z,3.08
2023-02-19T16:58:40.923Z,2.67
2023-02-19T17:00:43.711Z,2.75
2023-02-19T17:02:48.809Z,2.95
2023-02-19T17:04:55.638Z,3.20
2023-02-19T17:06:58.712Z,3.17
2023-02-19T17:09:01.563Z,3.30
2023-02-19T17:11:07.810Z,3.58
2023-02-19T17:13:10.735Z,4.20
2023-02-19T17:15:13.434Z,3.63
2023-02-19T17:17:15.780Z,3.25
2023-02-19T17:19:20.105Z,3.42
2023-02-19T17:21:25.873Z,3.30
2023-02-19T17:23:28.257Z,3.72
2023-02-19T17:25:31.163Z,3.17
2023-02-19T17:27:33.594Z,3.42
2023-02-19T17:29:37.412Z,4.05
2023-02-19T17:31:40.379Z,3.33
2023-02-19T17:33:43.613Z,3.30
2023-02-19T17:35:46.192Z,4.07
2023-02-19T17:37:48.935Z,3.50
2023-02-19T17:39:51.976Z,3.55
2023-02-19T17:41:54.939Z,2.97
2023-02-19T17:43:57.519Z,4.30
2023-02-19T17:46:00.491Z,3.10
2023-02-19T17:48:03.162Z,2.28
2023-02-19T17:50:07.162Z,2.72
2023-02-19T17:52:10.890Z,3.05
2023-02-19T17:54:13.529Z,3.08
2023-02-19T17:56:20.289Z,2.38
2023-02-19T17:58:23.210Z,2.63
2023-02-19T18:00:28.323Z,3.40
2023-02-19T18:02:31.343Z,4.13
2023-02-19T18:04:36.465Z,4.68
2023-02-19T18:06:39.834Z,7.80
2023-02-19T18:08:52.829Z,6.47
2023-02-19T18:10:56.036Z,10.05
2023-02-19T18:12:58.941Z,15.23
2023-02-19T18:15:01.972Z,13.32
2023-02-19T18:17:04.725Z,11.48
2023-02-19T18:19:08.060Z,10.27
2023-02-19T18:21:12.658Z,7.60
2023-02-19T18:23:15.661Z,5.57
2023-02-19T18:25:20.141Z,5.70
2023-02-19T18:27:24.362Z,5.28
2023-02-19T18:29:29.431Z,4.63
2023-02-19T18:31:34.229Z,4.50
2023-02-19T18:33:36.923Z,4.68
2023-02-19T18:35:40.352Z,4.97
2023-02-19T18:37:44.783Z,5.82
2023-02-19T18:39:47.488Z,5.57
2023-02-19T18:41:51.418Z,5.53
2023-02-19T18:43:53.933Z,5.00
2023-02-19T18:45:56.704Z,4.57
2023-02-19T18:47:59.329Z,4.60
2023-02-19T18:50:02.096Z,5.50
2023-02-19T18:52:05.066Z,4.85
2023-02-19T18:54:08.326Z,4.65
2023-02-19T18:56:11.161Z,5.20
2023-02-19T18:58:13.968Z,4.03
2023-02-19T19:00:24.056Z,4.63
2023-02-19T19:02:29.759Z,4.28
2023-02-19T19:04:34.967Z,4.38
2023-02-19T19:06:38.191Z,4.18
2023-02-19T19:08:41.260Z,4.50
2023-02-19T19:10:44.082Z,4.07
2023-02-19T19:12:46.831Z,3.97
2023-02-19T19:14:49.413Z,3.50
2023-02-19T19:16:52.509Z,4.10
2023-02-19T19:18:56.250Z,4.85
2023-02-19T19:21:03.655Z,4.00
2023-02-19T19:23:06.982Z,4.43
2023-02-19T19:25:09.693Z,5.03
2023-02-19T19:27:12.498Z,4.43
2023-02-19T19:29:16.550Z,4.53
2023-02-19T19:31:22.071Z,5.03
2023-02-19T19:33:27.780Z,5.50
2023-02-19T19:35:30.795Z,5.10
2023-02-19T19:37:33.583Z,6.13
2023-02-19T19:39:36.169Z,5.28
2023-02-19T19:41:38.971Z,5.78
2023-02-19T19:43:41.666Z,10.77
2023-02-19T19:45:44.971Z,9.60
2023-02-19T19:47:49.410Z,5.88
2023-02-19T19:49:52.610Z,8.25
2023-02-19T19:51:58.570Z,5.57
2023-02-19T19:54:03.541Z,5.70
2023-02-19T19:56:06.728Z,6.32
2023-02-19T19:58:09.442Z,6.45
2023-02-19T20:00:16.604Z,7.03
2023-02-19T20:02:20.490Z,6.57
2023-02-19T20:04:24.449Z,6.82
2023-02-19T20:06:32.638Z,5.88
2023-02-19T20:08:35.170Z,5.72
2023-02-19T20:10:37.905Z,5.75
2023-02-19T20:12:41.280Z,5.95
2023-02-19T20:14:46.489Z,6.15
2023-02-19T20:16:50.018Z,5.55
2023-02-19T20:18:52.768Z,4.63
2023-02-19T20:20:55.752Z,5.03
2023-02-19T20:22:58.663Z,4.70
2023-02-19T20:25:01.302Z,4.65
2023-02-19T20:27:04.759Z,4.50
2023-02-19T20:29:09.116Z,5.53
2023-02-19T20:31:12.371Z,4.55
2023-02-19T20:33:15.459Z,4.15
2023-02-19T20:35:18.544Z,4.32
2023-02-19T20:37:21.575Z,4.03
2023-02-19T20:39:29.169Z,4.10
2023-02-19T20:41:31.736Z,4.90
2023-02-19T20:43:34.297Z,4.25
2023-02-19T20:45:36.853Z,5.20
2023-02-19T20:47:40.562Z,5.28
2023-02-19T20:49:47.086Z,5.15
2023-02-19T20:51:54.079Z,4.93
2023-02-19T20:53:57.027Z,5.95
2023-02-19T20:56:00.432Z,6.70
2023-02-19T20:58:03.016Z,6.55
2023-02-19T21:00:07.341Z,5.93
2023-02-19T21:02:17.274Z,5.13
2023-02-19T21:04:20.436Z,5.15
2023-02-19T21:06:23.177Z,6.32
2023-02-19T21:08:25.834Z,5.28
2023-02-19T21:10:28.360Z,5.85
2023-02-19T21:12:32.060Z,5.22
2023-02-19T21:14:35.102Z,6.13
2023-02-19T21:16:37.646Z,5.90
2023-02-19T21:18:40.088Z,5.18
2023-02-19T21:22:45.497Z,5.28
2023-02-19T21:24:53.265Z,4.43
2023-02-19T21:26:56.253Z,4.95
2023-02-19T21:28:58.643Z,4.90
2023-02-19T21:31:01.809Z,4.70
2023-02-19T21:33:04.644Z,4.88
2023-02-19T21:35:07.688Z,4.90
2023-02-19T21:37:10.100Z,4.95
2023-02-19T21:39:16.159Z,6.20
2023-02-19T21:41:18.569Z,5.18
2023-02-19T21:43:21.481Z,5.78
2023-02-19T21:45:23.927Z,5.05
2023-02-19T21:47:28.114Z,5.78
2023-02-19T21:49:30.490Z,5.90
2023-02-19T21:51:42.982Z,5.35
2023-02-19T21:53:46.605Z,6.47
2023-02-19T21:55:58.370Z,7.15
2023-02-19T21:58:01.251Z,5.82
2023-02-19T22:00:06.360Z,6.55
2023-02-19T22:02:09.983Z,6.40
2023-02-19T22:04:17.824Z,6.03
2023-02-19T22:06:27.444Z,4.85
2023-02-19T22:08:31.540Z,5.95
2023-02-19T22:10:34.396Z,6.18
2023-02-19T22:12:37.035Z,6.30
2023-02-19T22:14:39.371Z,6.10
2023-02-19T22:16:41.937Z,5.50
2023-02-19T22:18:52.951Z,5.72
2023-02-19T22:20:55.738Z,6.00
2023-02-19T22:22:58.200Z,6.00
2023-02-19T22:25:01.111Z,5.95
2023-02-19T22:27:04.180Z,5.47
2023-02-19T22:29:08.737Z,5.35
2023-02-19T22:31:11.751Z,4.72
2023-02-19T22:33:14.396Z,4.90
2023-02-19T22:35:17.190Z,5.82
2023-02-19T22:37:20.045Z,6.35
2023-02-19T22:39:26.162Z,6.28
2023-02-19T22:41:28.868Z,6.65
2023-02-19T22:43:31.317Z,6.00
2023-02-19T22:45:34.041Z,6.25
2023-02-19T22:47:36.473Z,5.57
2023-02-19T22:49:40.147Z,5.30
2023-02-19T22:51:49.991Z,4.97
2023-02-19T22:53:54.989Z,4.38
2023-02-19T22:55:57.449Z,5.88
2023-02-19T22:58:00.267Z,5.28
2023-02-19T23:00:07.181Z,5.10
2023-02-19T23:02:09.732Z,4.97
2023-02-19T23:04:12.318Z,5.78
2023-02-19T23:06:16.255Z,4.88
2023-02-19T23:08:18.796Z,5.57
2023-02-19T23:10:21.573Z,5.05
2023-02-19T23:12:24.538Z,4.05
2023-02-19T23:14:27.393Z,4.50
2023-02-19T23:16:29.956Z,4.32
2023-02-19T23:18:32.315Z,3.92
2023-02-19T23:20:36.232Z,4.60
2023-02-19T23:22:38.587Z,4.55
2023-02-19T23:24:41.042Z,4.80
2023-02-19T23:26:48.398Z,4.20
2023-02-19T23:30:53.467Z,3.70
2023-02-19T23:32:55.879Z,3.42
2023-02-19T23:34:58.494Z,3.35
2023-02-19T23:37:00.851Z,3.60
2023-02-19T23:39:03.810Z,3.47
2023-02-19T23:41:11.378Z,4.00
2023-02-19T23:43:13.688Z,3.80
2023-02-19T23:45:16.974Z,3.60
2023-02-19T23:47:20.594Z,4.00
2023-02-19T23:49:23.236Z,3.35
2023-02-19T23:51:26.156Z,2.85
2023-02-19T23:54:10.551Z,3.42
2023-02-19T23:56:13.230Z,3.40
2023-02-19T23:58:15.861Z,3.15
